| time (UTC) | temp C | wind direction | speed KPH | gust KPH | rain 1hr cm | rain 24hr cm | rain mn cm | humidity % | barometer mb |
| 20260502151553 | 22 | 6 | 40.2 | 59.5 | 0.00 | 0.00 | 0.00 | 76 | 1016.6 |
| 20260502123051 | 21 | 335 | 25.7 | 35.4 | 0.00 | 0.00 | 0.00 | 82 | 1013.4 |
| 20260502121546 | 21 | 356 | 20.9 | 40.2 | 0.00 | 0.00 | 0.00 | 82 | 1013.3 |
| 20260502114603 | 21 | 342 | 38.6 | 46.7 | 0.00 | 0.00 | 0.00 | 81 | 1012.5 |
| 20260502113044 | 21 | 357 | 29.0 | 48.3 | 0.00 | 0.00 | 0.00 | 81 | 1012.3 |
| 20260502111549 | 22 | 345 | 35.4 | 51.5 | 0.00 | 0.00 | 0.00 | 81 | 1012.2 |
| 20260502110041 | 22 | 339 | 33.8 | 48.3 | 0.00 | 0.00 | 0.00 | 81 | 1012.3 |
| 20260502104549 | 22 | 333 | 38.6 | 56.3 | 0.00 | 0.00 | 0.00 | 81 | 1012.0 |
| 20260502103044 | 22 | 22 | 30.6 | 53.1 | 0.00 | 0.00 | 0.00 | 80 | 1012.0 |
| 20260502101600 | 22 | 341 | 32.2 | 53.1 | 0.00 | 0.00 | 0.00 | 80 | 1011.6 |
| 20260502070059 | 23 | 326 | 46.7 | 59.5 | 0.00 | 0.00 | 0.00 | 82 | 1010.8 |
| 20260502064614 | 23 | 335 | 35.4 | 61.2 | 0.00 | 0.00 | 0.00 | 84 | 1010.6 |
| 20260502063057 | 23 | 334 | 41.8 | 62.8 | 0.00 | 0.00 | 0.00 | 86 | 1010.7 |
| 20260502061550 | 23 | 325 | 45.1 | 72.4 | 0.00 | 0.00 | 0.00 | 87 | 1010.6 |
| 20260502060050 | 26 | 23 | 25.7 | 35.4 | 0.00 | 0.00 | 0.00 | 90 | 1009.8 |
| 20260502054607 | 26 | 22 | 20.9 | 30.6 | 0.00 | 0.00 | 0.00 | 90 | 1009.5 |
| 20260502053040 | 26 | 20 | 19.3 | 29.0 | 0.00 | 0.00 | 0.00 | 90 | 1009.4 |
| 20260502051548 | 26 | 27 | 20.9 | 32.2 | 0.00 | 0.00 | 0.00 | 90 | 1009.3 |
| 20260502050049 | 26 | 29 | 20.9 | 33.8 | 0.00 | 0.00 | 0.00 | 90 | 1009.1 |
| 20260502044542 | 26 | 46 | 20.9 | 29.0 | 0.00 | 0.00 | 0.00 | 90 | 1008.9 |
| 20260502043107 | 26 | 46 | 17.7 | 32.2 | 0.00 | 0.00 | 0.00 | 90 | 1008.7 |
| 20260502041546 | 26 | 30 | 22.5 | 30.6 | 0.00 | 0.00 | 0.00 | 90 | 1008.6 |
| 20260502040051 | 26 | 352 | 17.7 | 29.0 | 0.00 | 0.00 | 0.00 | 90 | 1008.3 |
| 20260502034545 | 26 | 13 | 14.5 | 24.1 | 0.00 | 0.00 | 0.00 | 90 | 1007.7 |
| 20260502033043 | 26 | 51 | 14.5 | 19.3 | 0.00 | 0.00 | 0.00 | 90 | 1007.3 |
| 20260502031540 | 26 | 21 | 12.9 | 19.3 | 0.00 | 0.00 | 0.00 | 90 | 1007.2 |
| 20260502030046 | 26 | 24 | 11.3 | 20.9 | 0.00 | 0.00 | 0.00 | 90 | 1007.1 |
| 20260502024547 | 26 | 39 | 12.9 | 19.3 | 0.00 | 0.00 | 0.00 | 90 | 1006.7 |
| 20260502023045 | 26 | 68 | 16.1 | 22.5 | 0.00 | 0.00 | 0.00 | 90 | 1006.2 |
| 20260502021543 | 26 | 60 | 16.1 | 24.1 | 0.00 | 0.00 | 0.00 | 90 | 1005.9 |
| 20260502020048 | 26 | 77 | 16.1 | 22.5 | 0.00 | 0.00 | 0.00 | 89 | 1005.7 |
| 20260502014541 | 26 | 98 | 19.3 | 24.1 | 0.00 | 0.00 | 0.00 | 89 | 1005.2 |
| 20260502013052 | 26 | 82 | 16.1 | 25.7 | 0.00 | 0.00 | 0.00 | 89 | 1004.7 |
| 20260502011551 | 26 | 66 | 19.3 | 25.7 | 0.00 | 0.00 | 0.00 | 89 | 1004.5 |
| 20260502010043 | 27 | 82 | 20.9 | 27.4 | 0.00 | 0.00 | 0.00 | 88 | 1004.1 |
| 20260502004547 | 27 | 102 | 17.7 | 27.4 | 0.00 | 0.00 | 0.00 | 88 | 1003.7 |
| 20260502003046 | 27 | 74 | 20.9 | 33.8 | 0.00 | 0.00 | 0.00 | 88 | 1003.5 |
| 20260502001546 | 27 | 88 | 24.1 | 33.8 | 0.00 | 0.00 | 0.00 | 87 | 1003.4 |
| 20260502000047 | 27 | 84 | 17.7 | 30.6 | 0.00 | 0.00 | 0.00 | 87 | 1003.3 |
| 20260501234546 | 27 | 92 | 17.7 | 30.6 | 0.00 | 0.00 | 0.00 | 87 | 1003.2 |
| 20260501233044 | 27 | 98 | 19.3 | 37.0 | 0.00 | 0.00 | 0.00 | 86 | 1003.0 |
| 20260501231540 | 27 | 103 | 20.9 | 33.8 | 0.00 | 0.00 | 0.00 | 86 | 1002.6 |
| 20260501230039 | 27 | 104 | 27.4 | 33.8 | 0.00 | 0.00 | 0.00 | 85 | 1002.6 |
| 20260501224540 | 27 | 103 | 29.0 | 38.6 | 0.00 | 0.00 | 0.00 | 85 | 1002.8 |
| 20260501223038 | 27 | 119 | 24.1 | 35.4 | 0.00 | 0.00 | 0.00 | 84 | 1002.9 |
| 20260501221542 | 27 | 106 | 24.1 | 37.0 | 0.00 | 0.00 | 0.00 | 83 | 1003.0 |
| 20260501220041 | 27 | 97 | 17.7 | 32.2 | 0.00 | 0.00 | 0.00 | 83 | 1003.1 |
| 20260501214548 | 27 | 98 | 29.0 | 37.0 | 0.00 | 0.00 | 0.00 | 83 | 1003.3 |
| 20260501213050 | 27 | 102 | 22.5 | 35.4 | 0.00 | 0.00 | 0.00 | 83 | 1003.4 |
| 20260501211552 | 27 | 97 | 22.5 | 32.2 | 0.00 | 0.00 | 0.00 | 83 | 1003.5 |
| 20260501210044 | 27 | 112 | 19.3 | 35.4 | 0.00 | 0.00 | 0.00 | 84 | 1003.6 |
| 20260501204552 | 27 | 166 | 20.9 | 32.2 | 0.00 | 0.00 | 0.00 | 84 | 1003.9 |
| 20260501203041 | 27 | 49 | 27.4 | 33.8 | 0.00 | 0.00 | 0.00 | 86 | 1004.0 |
| 20260501201544 | 27 | 94 | 27.4 | 33.8 | 0.00 | 0.00 | 0.00 | 86 | 1004.6 |
| 20260501200048 | 27 | 85 | 27.4 | 33.8 | 0.00 | 0.00 | 0.00 | 86 | 1004.9 |
| 20260501194548 | 27 | 85 | 27.4 | 33.8 | 0.00 | 0.00 | 0.00 | 85 | 1005.2 |
| 20260501193045 | 27 | 98 | 24.1 | 32.2 | 0.00 | 0.00 | 0.00 | 84 | 1005.4 |
| 20260501191544 | 27 | 94 | 24.1 | 30.6 | 0.00 | 0.00 | 0.00 | 84 | 1005.5 |
| 20260501190044 | 27 | 89 | 25.7 | 35.4 | 0.00 | 0.00 | 0.00 | 83 | 1006.0 |
| 20260501184546 | 27 | 110 | 24.1 | 33.8 | 0.00 | 0.00 | 0.00 | 84 | 1006.3 |
| 20260501183045 | 27 | 104 | 30.6 | 37.0 | 0.00 | 0.00 | 0.00 | 84 | 1006.5 |
| 20260501181546 | 27 | 95 | 25.7 | 33.8 | 0.00 | 0.00 | 0.00 | 84 | 1006.8 |
| 20260501180049 | 27 | 91 | 29.0 | 33.8 | 0.00 | 0.00 | 0.00 | 84 | 1007.1 |
| 20260501174549 | 27 | 92 | 25.7 | 32.2 | 0.00 | 0.00 | 0.00 | 83 | 1007.3 |
| 20260501173049 | 27 | 77 | 27.4 | 30.6 | 0.00 | 0.00 | 0.00 | 84 | 1007.5 |
| 20260501171555 | 27 | 77 | 27.4 | 33.8 | 0.00 | 0.00 | 0.00 | 84 | 1007.5 |
| 20260501170051 | 27 | 68 | 22.5 | 32.2 | 0.00 | 0.00 | 0.00 | 84 | 1007.6 |
| 20260501164556 | 26 | 74 | 27.4 | 33.8 | 0.00 | 0.00 | 0.00 | 84 | 1007.9 |
| 20260501163101 | 27 | 69 | 20.9 | 29.0 | 0.00 | 0.00 | 0.00 | 85 | 1008.1 |
| 20260501161551 | 27 | 82 | 22.5 | 29.0 | 0.00 | 0.00 | 0.00 | 85 | 1008.1 |
| 20260501160051 | 26 | 71 | 20.9 | 29.0 | 0.00 | 0.00 | 0.00 | 86 | 1008.2 |
| 20260501154555 | 26 | 54 | 22.5 | 27.4 | 0.00 | 0.00 | 0.00 | 87 | 1008.2 |
| 20260501153047 | 26 | 74 | 24.1 | 29.0 | 0.00 | 0.00 | 0.00 | 88 | 1008.1 |